Time;durP1;ratioP1;P1;durP2;ratioP2;P2;SDS_P1;SDS_P2;PMS_P1;PMS_P2;Temp;Humidity;BMP_temperature;BMP_pressure;BME280_temperature;BME280_humidity;BME280_pressure;Samples;Min_cycle;Max_cycle;Signal;HPM_P1;HPM_P2
2022/09/07 00:00:25;;;;;;;32.63;4.63;;;;;;;;;;5056043;28;20604;-62
2022/09/07 00:02:52;;;;;;;19.07;4.10;;;22.20;95.10;;;;;;5055429;28;20476;-63
2022/09/07 00:05:19;;;;;;;15.40;4.20;;;22.30;95.20;;;;;;5062668;28;21031;-63
2022/09/07 00:07:46;;;;;;;10.07;3.20;;;;;;;;;;5033735;28;20493;-63
2022/09/07 00:10:14;;;;;;;8.27;3.63;;;22.20;95.80;;;;;;5045249;28;20477;-62
2022/09/07 00:12:41;;;;;;;12.90;3.20;;;21.80;97.00;;;;;;5043312;28;20950;-63
2022/09/07 00:15:11;;;;;;;41.40;5.77;;;21.40;97.40;;;;;;5042198;28;20492;-61
2022/09/07 00:17:39;;;;;;;22.60;4.43;;;;;;;;;;5034242;28;20524;-61
2022/09/07 00:20:07;;;;;;;18.20;4.90;;;21.20;99.40;;;;;;5041338;28;20515;-65
2022/09/07 00:22:34;;;;;;;31.57;5.67;;;21.30;99.70;;;;;;5070182;28;20513;-64
2022/09/07 00:25:01;;;;;;;20.03;4.87;;;21.40;99.90;;;;;;5067606;28;20759;-65
2022/09/07 00:27:29;;;;;;;22.77;4.23;;;21.50;99.40;;;;;;5053921;28;20482;-63
2022/09/07 00:29:56;;;;;;;17.10;3.67;;;;;;;;;;5063855;28;20481;-61
2022/09/07 00:32:23;;;;;;;10.20;2.93;;;21.50;99.50;;;;;;5044071;28;20948;-64
2022/09/07 00:34:50;;;;;;;12.43;3.80;;;21.70;99.40;;;;;;5027051;28;20481;-62
2022/09/07 00:37:16;;;;;;;14.23;3.87;;;21.80;99.20;;;;;;5036833;28;20488;-63
2022/09/07 00:39:43;;;;;;;14.13;3.40;;;21.80;99.10;;;;;;5033919;28;21118;-64
2022/09/07 00:42:10;;;;;;;17.37;3.90;;;21.80;99.60;;;;;;5036080;28;20507;-64
2022/09/07 00:45:14;;;;;;;20.97;3.77;;;21.90;99.50;;;;;;5046435;28;20484;-64
2022/09/07 00:47:48;;;;;;;32.53;3.93;;;21.70;99.90;;;;;;4968743;28;20864;-63
2022/09/07 00:50:20;;;;;;;23.40;3.97;;;21.60;99.90;;;;;;4972233;28;20510;-63
2022/09/07 00:52:52;;;;;;;15.70;4.10;;;21.50;99.90;;;;;;5000395;28;20989;-62
2022/09/07 00:55:20;;;;;;;7.50;3.50;;;21.40;99.90;;;;;;5031362;28;20473;-62
2022/09/07 00:57:48;;;;;;;9.13;3.73;;;;;;;;;;5036251;28;20480;-63
2022/09/07 01:00:16;;;;;;;17.27;3.90;;;21.40;99.90;;;;;;5013103;28;20475;-65
2022/09/07 01:02:43;;;;;;;12.37;3.93;;;21.50;99.90;;;;;;5033634;28;20488;-64
2022/09/07 01:05:15;;;;;;;12.53;2.93;;;;;;;;;;5032855;28;20481;-62
2022/09/07 01:07:42;;;;;;;25.00;4.80;;;21.70;99.90;;;;;;5029462;28;20845;-65
2022/09/07 01:10:09;;;;;;;9.53;3.30;;;21.50;99.90;;;;;;5031918;28;20480;-62
2022/09/07 01:12:36;;;;;;;14.07;4.73;;;21.40;99.90;;;;;;5033572;28;20754;-64
2022/09/07 01:15:04;;;;;;;16.23;4.40;;;21.30;99.90;;;;;;5029123;28;21059;-63
2022/09/07 01:17:41;;;;;;;19.80;3.93;;;21.20;99.90;;;;;;5019275;28;20484;-61
2022/09/07 01:20:36;;;;;;;21.07;4.30;;;21.10;99.90;;;;;;5032754;28;20841;-62
2022/09/07 01:23:34;;;;;;;8.87;3.10;;;21.20;99.90;;;;;;5029714;28;20469;-62
2022/09/07 01:26:12;;;;;;;18.77;3.93;;;;;;;;;;5047071;28;20496;-62
2022/09/07 01:28:41;;;;;;;20.13;4.63;;;21.50;99.90;;;;;;5040310;28;21025;-63
2022/09/07 01:31:13;;;;;;;18.17;3.87;;;21.50;99.90;;;;;;5035958;28;20484;-63
2022/09/07 01:33:45;;;;;;;10.57;3.77;;;;;;;;;;5031187;28;20463;-62
2022/09/07 01:36:21;;;;;;;16.07;3.37;;;21.60;99.90;;;;;;5042590;28;20468;-65
2022/09/07 01:38:51;;;;;;;16.63;4.30;;;;;;;;;;5067746;28;20481;-63
2022/09/07 01:41:23;;;;;;;27.47;4.77;;;21.60;99.80;;;;;;5067742;28;21036;-64
2022/09/07 01:43:58;;;;;;;11.10;3.73;;;21.70;99.80;;;;;;5051281;28;20464;-63
2022/09/07 01:46:28;;;;;;;17.80;5.10;;;21.70;99.70;;;;;;5055651;28;20474;-63
2022/09/07 01:48:59;;;;;;;11.93;3.50;;;21.70;99.70;;;;;;5066153;28;20502;-64
2022/09/07 01:51:29;;;;;;;18.27;4.77;;;;;;;;;;5043561;28;20870;-62
2022/09/07 01:53:58;;;;;;;14.37;4.37;;;21.70;99.70;;;;;;5058688;28;20814;-63
2022/09/07 01:56:30;;;;;;;19.97;5.30;;;21.60;99.90;;;;;;5023460;28;20492;-62
2022/09/07 01:59:14;;;;;;;12.00;4.10;;;21.50;99.90;;;;;;5038180;28;20496;-64
2022/09/07 02:01:47;;;;;;;19.77;4.03;;;21.30;99.90;;;;;;5065852;28;20487;-61
2022/09/07 02:04:18;;;;;;;19.27;4.50;;;21.30;99.90;;;;;;5051720;28;20487;-64
2022/09/07 02:06:49;;;;;;;17.23;3.37;;;21.20;99.90;;;;;;5071007;28;20498;-62
2022/09/07 02:09:18;;;;;;;13.23;3.43;;;;;;;;;;5076373;28;20498;-63
2022/09/07 02:11:48;;;;;;;23.70;4.50;;;21.20;99.90;;;;;;5064800;28;20479;-64
2022/09/07 02:14:19;;;;;;;19.00;4.30;;;;;;;;;;5040174;28;20567;-62
2022/09/07 02:16:49;;;;;;;10.50;4.03;;;;;;;;;;5046044;28;20487;-63
2022/09/07 02:19:18;;;;;;;12.13;3.30;;;21.20;99.90;;;;;;5047505;28;20689;-63
2022/09/07 02:21:49;;;;;;;15.57;4.40;;;21.30;99.90;;;;;;5057360;28;20483;-62
2022/09/07 02:24:18;;;;;;;11.80;3.50;;;;;;;;;;5035853;28;20865;-64
2022/09/07 02:26:48;;;;;;;22.37;4.30;;;;;;;;;;5054368;28;20482;-63
2022/09/07 02:29:16;;;;;;;15.97;4.40;;;21.20;99.90;;;;;;5055033;28;20470;-64
2022/09/07 02:31:43;;;;;;;14.70;4.50;;;21.00;99.90;;;;;;5056541;28;20495;-62
2022/09/07 02:34:10;;;;;;;10.63;4.07;;;21.00;99.90;;;;;;5050517;28;20559;-62
2022/09/07 02:36:43;;;;;;;16.20;4.60;;;20.90;99.90;;;;;;5056211;28;20483;-63
2022/09/07 02:39:10;;;;;;;13.23;4.93;;;20.70;99.90;;;;;;5053843;28;20975;-62
2022/09/07 02:41:39;;;;;;;11.53;4.63;;;20.50;99.90;;;;;;5050893;28;20483;-62
2022/09/07 02:44:09;;;;;;;16.17;5.10;;;;;;;;;;5011148;28;20997;-62
2022/09/07 02:46:58;;;;;;;9.67;4.07;;;20.40;99.90;;;;;;5056884;28;20738;-64
2022/09/07 02:49:42;;;;;;;20.17;4.30;;;20.40;99.90;;;;;;5034246;28;20507;-62
2022/09/07 02:52:15;;;;;;;11.70;4.03;;;;;;;;;;5034340;28;20493;-63
2022/09/07 02:54:53;;;;;;;16.27;5.00;;;20.40;99.90;;;;;;5034117;28;20490;-63
2022/09/07 02:57:31;;;;;;;10.50;4.33;;;20.40;99.90;;;;;;5033555;28;20821;-62
2022/09/07 03:00:07;;;;;;;17.17;4.77;;;20.40;99.90;;;;;;5034639;28;20492;-62
2022/09/07 03:02:43;;;;;;;10.10;4.07;;;20.40;99.90;;;;;;5036614;28;21472;-62
2022/09/07 03:05:16;;;;;;;12.20;4.57;;;20.40;99.90;;;;;;5017612;28;20479;-62
2022/09/07 03:07:45;;;;;;;10.63;4.03;;;;;;;;;;5037187;28;20509;-62
2022/09/07 03:10:14;;;;;;;23.07;4.77;;;20.30;99.90;;;;;;5034950;28;20480;-62
2022/09/07 03:12:43;;;;;;;19.17;4.60;;;20.30;99.90;;;;;;5034595;28;20493;-61
2022/09/07 03:15:11;;;;;;;7.80;3.53;;;20.40;99.90;;;;;;5033263;28;20574;-63
2022/09/07 03:17:40;;;;;;;14.77;4.60;;;20.50;99.90;;;;;;5033302;28;20812;-63
2022/09/07 03:20:07;;;;;;;11.63;4.33;;;20.50;99.90;;;;;;5035783;28;20475;-63
2022/09/07 03:22:34;;;;;;;16.23;5.73;;;;;;;;;;5035696;28;20479;-63
2022/09/07 03:25:03;;;;;;;17.87;4.23;;;;;;;;;;5035219;28;20966;-63
2022/09/07 03:27:30;;;;;;;12.77;4.57;;;20.00;99.90;;;;;;5035391;28;20567;-64
2022/09/07 03:29:57;;;;;;;12.10;5.23;;;19.80;99.90;;;;;;5033334;28;20484;-63
2022/09/07 03:32:23;;;;;;;13.33;4.80;;;19.70;99.90;;;;;;5034990;28;20484;-62
2022/09/07 03:34:52;;;;;;;10.07;4.97;;;19.60;99.90;;;;;;5030748;28;21385;-63
2022/09/07 03:37:19;;;;;;;15.63;5.60;;;19.60;99.90;;;;;;5035688;28;21009;-64
2022/09/07 03:39:46;;;;;;;10.43;4.33;;;;;;;;;;5034241;28;20504;-63
2022/09/07 03:42:41;;;;;;;10.43;3.73;;;;;;;;;;5033504;28;21324;-62
2022/09/07 03:45:09;;;;;;;37.20;6.27;;;;;;;;;;5010224;28;20481;-63
2022/09/07 03:47:36;;;;;;;11.60;5.43;;;19.70;99.90;;;;;;5033046;28;20482;-63
2022/09/07 03:50:05;;;;;;;14.00;5.40;;;19.70;99.90;;;;;;5034865;28;20527;-63
2022/09/07 03:52:33;;;;;;;18.70;5.13;;;19.60;99.90;;;;;;5034515;28;20485;-64
2022/09/07 03:55:00;;;;;;;14.80;5.17;;;19.60;99.90;;;;;;5034083;28;20499;-62
2022/09/07 03:57:27;;;;;;;17.70;3.70;;;19.70;99.90;;;;;;5034991;28;20480;-64
2022/09/07 03:59:53;;;;;;;22.57;4.00;;;19.80;99.90;;;;;;5034643;28;20487;-62
2022/09/07 04:02:20;;;;;;;10.73;4.03;;;19.80;99.90;;;;;;5034102;28;20472;-61
2022/09/07 04:04:47;;;;;;;9.80;3.70;;;19.90;99.90;;;;;;5032878;28;21344;-64
2022/09/07 04:07:16;;;;;;;12.00;3.60;;;;;;;;;;5029494;28;20488;-61
2022/09/07 04:09:42;;;;;;;10.13;3.60;;;20.00;99.90;;;;;;5034295;28;20886;-62
2022/09/07 04:12:09;;;;;;;10.93;3.97;;;20.00;99.90;;;;;;5035558;28;20600;-62
2022/09/07 04:14:36;;;;;;;14.87;3.90;;;;;;;;;;5029011;28;20550;-63
2022/09/07 04:17:03;;;;;;;9.10;3.30;;;20.10;99.90;;;;;;5035694;28;20468;-62
2022/09/07 04:19:30;;;;;;;8.73;3.93;;;20.10;99.90;;;;;;5037382;28;20496;-62
2022/09/07 04:21:56;;;;;;;10.53;3.63;;;20.10;99.90;;;;;;5035248;28;20487;-63
2022/09/07 04:24:25;;;;;;;10.20;3.93;;;20.10;99.90;;;;;;5030245;28;20484;-63
2022/09/07 04:26:52;;;;;;;15.83;4.63;;;;;;;;;;5035183;28;20922;-65
2022/09/07 04:29:19;;;;;;;20.13;5.03;;;;;;;;;;5033452;28;20512;-63
2022/09/07 04:31:46;;;;;;;6.53;3.33;;;;;;;;;;5033235;28;20496;-64
2022/09/07 04:34:13;;;;;;;9.73;3.73;;;19.50;99.90;;;;;;5031513;28;20489;-63
2022/09/07 04:36:40;;;;;;;12.30;4.60;;;19.30;99.90;;;;;;5041579;28;20489;-64
2022/09/07 04:39:07;;;;;;;10.77;3.90;;;19.20;99.90;;;;;;5034023;28;20479;-63
2022/09/07 04:41:35;;;;;;;12.03;4.17;;;19.10;99.90;;;;;;5028725;28;20927;-64
2022/09/07 04:44:03;;;;;;;14.40;3.57;;;19.10;99.90;;;;;;5035739;28;20492;-62
2022/09/07 04:46:33;;;;;;;9.60;3.83;;;19.00;99.90;;;;;;5040943;28;20880;-64
2022/09/07 04:49:01;;;;;;;9.73;3.97;;;;;;;;;;5040184;28;20484;-62
2022/09/07 04:51:29;;;;;;;14.37;3.80;;;;;;;;;;5040775;28;20851;-62
2022/09/07 04:53:57;;;;;;;10.13;4.20;;;18.80;99.90;;;;;;5037941;28;20487;-61
2022/09/07 04:56:24;;;;;;;10.33;3.53;;;18.70;99.90;;;;;;5027556;28;20477;-62
2022/09/07 04:58:52;;;;;;;16.93;4.17;;;18.80;99.90;;;;;;5039810;28;20487;-63
2022/09/07 05:01:21;;;;;;;10.63;3.40;;;18.80;99.90;;;;;;5043220;28;20487;-63
2022/09/07 05:03:48;;;;;;;18.03;3.87;;;18.80;99.90;;;;;;5050340;28;20479;-62
2022/09/07 05:06:16;;;;;;;15.73;3.97;;;18.90;99.90;;;;;;5034905;28;20475;-62
2022/09/07 05:08:44;;;;;;;11.30;3.57;;;18.90;99.90;;;;;;5010868;28;20829;-63
2022/09/07 05:11:12;;;;;;;18.33;4.13;;;;;;;;;;5014628;28;20859;-62
2022/09/07 05:13:39;;;;;;;9.80;4.37;;;;;;;;;;5036220;28;20482;-62
2022/09/07 05:16:10;;;;;;;12.40;4.10;;;19.00;99.90;;;;;;5054289;28;20888;-62
2022/09/07 05:18:36;;;;;;;21.17;4.40;;;19.10;99.90;;;;;;5052557;28;20483;-62
2022/09/07 05:21:11;;;;;;;10.47;3.60;;;19.20;99.90;;;;;;5034685;28;20984;-61
2022/09/07 05:23:38;;;;;;;19.13;5.20;;;19.20;99.90;;;;;;5030192;28;20842;-61
2022/09/07 05:26:06;;;;;;;23.60;4.40;;;;;;;;;;5032567;28;20490;-64
2022/09/07 05:28:33;;;;;;;16.27;3.93;;;19.20;99.90;;;;;;5047086;28;20491;-62
2022/09/07 05:31:04;;;;;;;9.93;4.33;;;19.20;99.90;;;;;;5053430;28;20506;-62
2022/09/07 05:33:32;;;;;;;17.90;4.70;;;19.20;99.90;;;;;;5047846;28;21215;-62
2022/09/07 05:36:00;;;;;;;10.77;4.50;;;19.10;99.90;;;;;;5055794;28;20475;-61
2022/09/07 05:38:27;;;;;;;9.00;3.73;;;19.20;99.90;;;;;;5038311;28;20488;-63
2022/09/07 05:40:54;;;;;;;18.30;4.70;;;19.20;99.90;;;;;;5038819;28;20476;-64
2022/09/07 05:43:20;;;;;;;17.77;5.20;;;19.30;99.90;;;;;;5037284;28;20484;-63
2022/09/07 05:45:47;;;;;;;9.13;3.80;;;19.30;99.90;;;;;;5056883;28;20849;-63
2022/09/07 05:48:14;;;;;;;15.80;5.27;;;19.30;99.90;;;;;;5057068;28;20471;-64
2022/09/07 05:50:49;;;;;;;18.27;4.03;;;;;;;;;;5059341;28;20476;-62
2022/09/07 05:53:16;;;;;;;16.03;4.03;;;;;;;;;;5032582;28;20487;-62
2022/09/07 05:55:43;;;;;;;10.70;3.37;;;19.40;99.90;;;;;;5046917;28;20474;-62
2022/09/07 05:58:10;;;;;;;9.77;4.30;;;19.40;99.90;;;;;;5032357;28;20472;-63
2022/09/07 06:00:36;;;;;;;18.97;4.70;;;19.40;99.90;;;;;;5036744;28;21004;-62
2022/09/07 06:03:03;;;;;;;16.03;4.00;;;19.50;99.90;;;;;;5043535;28;20522;-63
2022/09/07 06:05:30;;;;;;;12.30;5.00;;;19.50;99.90;;;;;;5034832;28;20492;-65
2022/09/07 06:07:58;;;;;;;21.13;5.10;;;19.60;99.90;;;;;;5037690;28;20480;-62
2022/09/07 06:10:25;;;;;;;8.13;3.13;;;;;;;;;;5035530;28;20498;-63
2022/09/07 06:12:53;;;;;;;15.17;4.60;;;19.70;99.90;;;;;;5037498;28;20567;-62
2022/09/07 06:15:19;;;;;;;22.57;5.73;;;19.80;99.90;;;;;;5048859;28;20507;-63
2022/09/07 06:17:46;;;;;;;16.23;4.67;;;20.00;99.90;;;;;;5038737;28;20487;-62
2022/09/07 06:20:13;;;;;;;17.00;4.90;;;20.20;99.90;;;;;;5041096;28;20495;-63
2022/09/07 06:22:40;;;;;;;23.63;4.97;;;20.30;99.90;;;;;;5041546;28;20484;-63
2022/09/07 06:25:09;;;;;;;12.03;5.10;;;;;;;;;;5034826;28;20488;-63
2022/09/07 06:27:36;;;;;;;15.43;5.00;;;;;;;;;;5031671;28;20484;-62
2022/09/07 06:30:03;;;;;;;17.73;4.03;;;21.70;99.90;;;;;;5048136;28;20489;-62
2022/09/07 06:32:30;;;;;;;9.40;5.53;;;22.30;99.90;;;;;;5032309;28;20852;-62
2022/09/07 06:34:57;;;;;;;10.83;4.17;;;23.00;99.90;;;;;;5035566;28;20895;-66
2022/09/07 06:37:23;;;;;;;20.93;6.83;;;23.40;99.90;;;;;;5037470;28;20905;-65
2022/09/07 06:39:50;;;;;;;10.73;4.20;;;23.90;99.90;;;;;;5049646;28;20496;-65
2022/09/07 06:42:18;;;;;;;10.60;4.53;;;24.30;99.20;;;;;;5043726;28;20492;-63
2022/09/07 06:44:45;;;;;;;25.50;4.10;;;;;;;;;;5046068;28;20476;-64
2022/09/07 06:47:12;;;;;;;17.60;3.50;;;24.90;97.60;;;;;;5076158;28;20479;-64
2022/09/07 06:49:39;;;;;;;16.43;3.87;;;;;;;;;;5069847;28;20483;-64
2022/09/07 06:52:06;;;;;;;25.30;3.83;;;;;;;;;;5075094;28;20484;-63
2022/09/07 06:54:33;;;;;;;13.17;4.60;;;25.80;95.60;;;;;;5058685;28;20508;-65
2022/09/07 06:57:05;;;;;;;20.90;3.70;;;26.10;95.70;;;;;;5045086;28;20481;-65
2022/09/07 06:59:34;;;;;;;21.47;3.97;;;26.20;94.80;;;;;;5057461;28;20495;-64
2022/09/07 07:02:01;;;;;;;18.37;3.47;;;26.10;93.60;;;;;;5055413;28;20496;-63
2022/09/07 07:04:27;;;;;;;9.50;3.83;;;25.70;94.30;;;;;;5053175;28;20494;-64
2022/09/07 07:06:54;;;;;;;13.70;3.33;;;25.40;94.30;;;;;;5056035;28;20493;-62
2022/09/07 07:09:21;;;;;;;12.03;3.70;;;25.40;95.20;;;;;;5053246;28;20524;-64
2022/09/07 07:11:47;;;;;;;6.10;2.97;;;25.30;94.60;;;;;;5056706;28;20480;-66
2022/09/07 07:14:15;;;;;;;16.23;3.67;;;;;;;;;;5032351;28;20482;-65
2022/09/07 07:16:43;;;;;;;7.83;2.77;;;24.90;95.60;;;;;;5055590;28;20491;-64
2022/09/07 07:19:09;;;;;;;11.10;3.20;;;24.90;95.90;;;;;;5041178;28;20872;-65
2022/09/07 07:21:36;;;;;;;5.07;2.87;;;24.80;95.80;;;;;;5053849;28;20489;-64
2022/09/07 07:24:03;;;;;;;8.53;3.50;;;24.80;96.10;;;;;;5048210;28;20496;-65
2022/09/07 07:26:30;;;;;;;10.40;4.13;;;25.00;96.40;;;;;;5030827;28;20491;-65
2022/09/07 07:28:56;;;;;;;8.33;2.57;;;25.10;96.00;;;;;;5046355;28;20486;-63
2022/09/07 07:31:25;;;;;;;8.60;3.90;;;25.10;95.80;;;;;;5038163;28;20482;-64
2022/09/07 07:33:54;;;;;;;16.13;3.70;;;24.90;96.10;;;;;;5035358;28;20488;-63
2022/09/07 07:36:22;;;;;;;14.60;4.17;;;;;;;;;;5035304;28;20486;-65
2022/09/07 07:38:50;;;;;;;20.97;4.07;;;24.70;96.90;;;;;;5039674;28;20482;-66
2022/09/07 07:41:19;;;;;;;15.57;3.70;;;24.50;96.10;;;;;;5033374;28;20474;-63
2022/09/07 07:43:47;;;;;;;18.67;3.47;;;;;;;;;;5049774;28;20486;-65
2022/09/07 07:46:15;;;;;;;7.40;3.20;;;24.60;97.80;;;;;;5037459;28;20470;-63
2022/09/07 07:48:42;;;;;;;9.77;3.67;;;;;;;;;;5047871;28;20474;-64
2022/09/07 07:51:11;;;;;;;12.03;4.60;;;24.60;95.80;;;;;;5055574;28;20490;-62
2022/09/07 07:53:39;;;;;;;15.80;4.80;;;24.10;95.60;;;;;;5051789;28;20537;-61
2022/09/07 07:56:06;;;;;;;16.73;4.40;;;24.00;96.50;;;;;;5039664;28;20482;-63
2022/09/07 07:58:37;;;;;;;19.13;6.53;;;23.60;97.30;;;;;;5036343;28;20503;-64
2022/09/07 08:01:05;;;;;;;9.30;5.43;;;;;;;;;;5049094;28;20482;-64
2022/09/07 08:03:34;;;;;;;28.13;6.50;;;23.50;98.50;;;;;;5050688;28;20786;-62
2022/09/07 08:06:06;;;;;;;18.83;6.00;;;23.50;98.80;;;;;;5037380;28;20497;-63
2022/09/07 08:08:35;;;;;;;14.80;6.70;;;;;;;;;;5032491;28;20603;-63
2022/09/07 08:11:03;;;;;;;13.93;6.80;;;23.50;97.40;;;;;;5032921;28;20512;-64
2022/09/07 08:13:32;;;;;;;13.57;5.70;;;23.20;98.10;;;;;;5031338;28;20490;-62
2022/09/07 08:15:59;;;;;;;11.30;5.50;;;23.20;98.40;;;;;;5032538;28;20543;-62
2022/09/07 08:18:26;;;;;;;7.77;3.83;;;;;;;;;;5041630;28;20486;-62
2022/09/07 08:20:53;;;;;;;8.93;3.60;;;23.10;98.40;;;;;;5034231;28;20483;-62
2022/09/07 08:23:20;;;;;;;28.03;5.17;;;23.10;98.80;;;;;;5030036;28;20470;-61
2022/09/07 08:25:52;;;;;;;7.80;3.97;;;;;;;;;;5031437;28;20819;-63
2022/09/07 08:28:19;;;;;;;7.23;4.57;;;23.30;99.30;;;;;;5032660;28;20497;-64
2022/09/07 08:30:46;;;;;;;22.80;4.00;;;;;;;;;;5028037;28;20504;-62
2022/09/07 08:33:13;;;;;;;12.73;4.87;;;23.80;98.20;;;;;;5023460;28;20474;-64
2022/09/07 08:35:39;;;;;;;11.23;4.30;;;24.00;97.60;;;;;;5032300;28;20482;-64
2022/09/07 08:38:06;;;;;;;11.07;4.17;;;24.10;97.30;;;;;;5033746;28;20485;-63
2022/09/07 08:40:36;;;;;;;11.43;5.47;;;;;;;;;;5031878;28;20909;-63
2022/09/07 08:43:13;;;;;;;15.50;5.50;;;24.30;97.20;;;;;;5032596;28;20482;-63
2022/09/07 08:45:45;;;;;;;12.90;4.87;;;24.10;96.30;;;;;;5032492;28;20968;-65
2022/09/07 08:48:15;;;;;;;20.53;5.83;;;24.00;96.20;;;;;;5029922;28;20502;-65
2022/09/07 08:50:46;;;;;;;21.70;5.40;;;;;;;;;;5033169;28;20490;-65
2022/09/07 08:53:15;;;;;;;9.80;4.70;;;24.10;96.80;;;;;;5034563;28;20486;-63
2022/09/07 08:55:47;;;;;;;12.27;4.20;;;24.20;96.60;;;;;;5032908;28;20487;-64
2022/09/07 08:58:20;;;;;;;14.03;4.90;;;24.30;96.70;;;;;;5033751;28;20540;-63
2022/09/07 09:00:49;;;;;;;17.40;4.57;;;;;;;;;;5034321;28;20481;-62
2022/09/07 09:03:20;;;;;;;16.00;4.47;;;;;;;;;;5022980;28;20876;-65
2022/09/07 09:05:56;;;;;;;8.47;4.30;;;24.80;96.30;;;;;;5033096;28;20482;-64
2022/09/07 09:08:44;;;;;;;18.33;4.70;;;25.10;94.80;;;;;;5033441;28;20481;-64
2022/09/07 09:11:17;;;;;;;20.13;4.93;;;25.30;94.90;;;;;;5031952;28;20471;-64
2022/09/07 09:13:54;;;;;;;20.07;4.70;;;25.30;94.20;;;;;;5036475;28;20571;-64
2022/09/07 09:16:28;;;;;;;22.57;6.27;;;25.50;94.40;;;;;;5044870;28;20788;-65
2022/09/07 09:19:23;;;;;;;22.17;5.47;;;25.70;94.70;;;;;;5033468;28;20485;-64
2022/09/07 09:22:01;;;;;;;11.57;4.07;;;26.10;94.50;;;;;;5052781;28;20890;-64
2022/09/07 09:24:32;;;;;;;8.43;4.00;;;;;;;;;;5032465;28;21012;-64
2022/09/07 09:26:59;;;;;;;10.40;3.90;;;;;;;;;;5037048;28;20478;-65
2022/09/07 09:29:27;;;;;;;8.60;3.67;;;25.70;93.10;;;;;;5050714;28;20485;-65
2022/09/07 09:31:55;;;;;;;13.00;4.90;;;;;;;;;;5037719;28;20482;-62
2022/09/07 09:34:22;;;;;;;9.47;4.43;;;;;;;;;;5044033;28;20490;-63
2022/09/07 09:36:51;;;;;;;9.07;4.17;;;25.90;93.90;;;;;;5047345;28;20560;-64
2022/09/07 09:39:32;;;;;;;7.93;4.40;;;26.00;92.50;;;;;;5046862;28;20489;-63
2022/09/07 09:42:13;;;;;;;19.33;5.13;;;26.00;92.10;;;;;;5057263;28;20470;-63
2022/09/07 09:44:42;;;;;;;5.13;3.47;;;26.00;92.80;;;;;;5046628;28;20831;-63
2022/09/07 09:47:25;;;;;;;9.97;3.77;;;25.90;92.40;;;;;;5050409;28;20823;-64
2022/09/07 09:49:53;;;;;;;9.20;3.77;;;25.90;93.80;;;;;;5036121;28;20498;-64
2022/09/07 09:52:22;;;;;;;7.03;3.70;;;;;;;;;;5036475;28;20846;-64
2022/09/07 09:54:52;;;;;;;19.13;4.80;;;25.50;92.40;;;;;;5035610;28;20811;-62
2022/09/07 09:57:50;;;;;;;5.63;4.07;;;25.50;92.50;;;;;;5033104;28;20482;-63
2022/09/07 10:00:19;;;;;;;11.77;4.80;;;;;;;;;;5036281;28;20474;-64
2022/09/07 10:03:06;;;;;;;7.20;3.67;;;25.40;93.40;;;;;;5036407;28;20485;-63
2022/09/07 10:05:35;;;;;;;12.70;3.60;;;;;;;;;;5030903;28;20483;-63
2022/09/07 10:08:02;;;;;;;10.07;3.60;;;;;;;;;;5041723;28;20474;-65
2022/09/07 10:10:30;;;;;;;33.77;4.73;;;;;;;;;;5037558;28;20494;-63
2022/09/07 10:12:58;;;;;;;14.00;4.40;;;26.00;91.80;;;;;;5033260;28;20562;-62
2022/09/07 10:15:30;;;;;;;12.10;3.30;;;;;;;;;;5024469;28;20497;-63
2022/09/07 10:17:58;;;;;;;14.43;3.30;;;25.80;91.50;;;;;;5034647;28;20441;-64
2022/09/07 10:20:35;;;;;;;17.47;4.00;;;25.70;91.40;;;;;;5032214;28;20583;-64
2022/09/07 10:23:03;;;;;;;32.67;4.97;;;25.70;91.30;;;;;;5024678;28;20976;-63
2022/09/07 10:25:33;;;;;;;11.00;3.83;;;25.70;91.20;;;;;;5029413;28;21126;-62
2022/09/07 10:28:05;;;;;;;13.70;3.60;;;;;;;;;;5021262;28;20528;-63
2022/09/07 10:30:41;;;;;;;13.67;3.63;;;25.60;91.10;;;;;;5032412;28;20476;-62
2022/09/07 10:33:13;;;;;;;6.10;3.63;;;25.60;90.40;;;;;;5023043;28;20487;-62
2022/09/07 10:35:48;;;;;;;6.73;3.00;;;25.70;90.70;;;;;;5032872;28;20493;-62
2022/09/07 10:38:18;;;;;;;6.03;2.77;;;26.00;91.70;;;;;;5021466;28;20505;-64
2022/09/07 10:40:47;;;;;;;6.13;3.33;;;;;;;;;;5030013;28;20493;-64
2022/09/07 10:43:25;;;;;;;5.10;3.03;;;26.40;90.90;;;;;;5038619;28;21005;-64
2022/09/07 10:46:27;;;;;;;9.83;3.00;;;26.80;90.30;;;;;;5022279;28;20516;-64
2022/09/07 10:49:16;;;;;;;4.10;3.10;;;27.00;89.40;;;;;;4996639;28;20504;-63
2022/09/07 10:51:51;;;;;;;9.37;3.17;;;26.90;87.80;;;;;;5019885;28;20490;-64
2022/09/07 10:54:27;;;;;;;5.70;2.50;;;27.10;88.90;;;;;;4999985;28;20474;-64
2022/09/07 10:57:00;;;;;;;4.97;2.00;;;27.30;88.60;;;;;;5029385;28;20470;-65
2022/09/07 10:59:38;;;;;;;6.47;2.30;;;27.20;83.10;;;;;;5042042;28;20488;-63
2022/09/07 11:02:16;;;;;;;13.03;2.90;;;27.30;86.00;;;;;;5070439;28;20504;-64
2022/09/07 11:04:51;;;;;;;4.30;1.90;;;27.20;83.30;;;;;;5044080;28;21002;-63
2022/09/07 11:07:37;;;;;;;16.20;2.80;;;26.80;82.20;;;;;;5056655;28;20448;-64
2022/09/07 11:10:18;;;;;;;13.53;2.57;;;26.90;83.00;;;;;;5053738;28;20484;-64
2022/09/07 11:12:45;;;;;;;9.27;2.40;;;;;;;;;;5059081;28;20449;-62
2022/09/07 11:15:20;;;;;;;13.03;2.80;;;26.60;84.20;;;;;;5054302;28;20486;-62
2022/09/07 11:17:54;;;;;;;15.50;3.03;;;26.30;82.50;;;;;;5057551;28;20471;-62
2022/09/07 11:20:28;;;;;;;18.30;3.23;;;26.50;83.90;;;;;;5040578;28;20831;-63
2022/09/07 11:23:06;;;;;;;5.67;2.30;;;26.60;84.30;;;;;;5062871;28;20481;-62
2022/09/07 11:25:35;;;;;;;5.50;2.30;;;;;;;;;;5065135;28;20471;-63
2022/09/07 11:28:08;;;;;;;7.73;2.00;;;26.40;80.90;;;;;;5067198;28;20976;-62
2022/09/07 11:30:40;;;;;;;6.13;2.10;;;26.30;81.20;;;;;;5020558;28;20562;-64
2022/09/07 11:33:15;;;;;;;3.87;1.77;;;26.30;81.20;;;;;;5041645;28;20982;-64
2022/09/07 11:35:47;;;;;;;17.40;2.33;;;26.40;82.40;;;;;;5056360;28;20792;-62
2022/09/07 11:38:24;;;;;;;13.10;2.80;;;26.50;81.60;;;;;;5055028;28;20989;-64
2022/09/07 11:41:03;;;;;;;16.73;2.63;;;26.50;80.90;;;;;;5058023;28;20471;-62
2022/09/07 11:43:35;;;;;;;6.20;2.10;;;26.60;82.70;;;;;;5065946;28;20482;-64
2022/09/07 11:46:06;;;;;;;36.20;3.70;;;26.70;81.60;;;;;;5062990;28;20482;-63
2022/09/07 11:48:39;;;;;;;7.60;1.63;;;26.60;80.70;;;;;;5064377;28;20493;-63
2022/09/07 11:51:16;;;;;;;5.93;2.03;;;;;;;;;;5018964;28;20496;-62
2022/09/07 11:53:45;;;;;;;12.03;2.33;;;;;;;;;;5049189;28;21015;-62
2022/09/07 11:56:18;;;;;;;3.53;1.90;;;26.40;82.60;;;;;;5043470;28;20482;-63
2022/09/07 11:59:11;;;;;;;21.73;2.43;;;26.30;79.40;;;;;;5047123;28;20642;-64
2022/09/07 12:01:47;;;;;;;3.30;1.57;;;26.20;79.30;;;;;;5029639;28;20475;-63
2022/09/07 12:04:35;;;;;;;5.10;1.63;;;26.10;78.80;;;;;;5039359;28;20453;-62
2022/09/07 12:07:12;;;;;;;25.17;2.60;;;;;;;;;;5040646;28;20478;-63
2022/09/07 12:09:58;;;;;;;11.73;2.37;;;26.00;80.20;;;;;;5043048;28;20730;-63
2022/09/07 12:12:51;;;;;;;9.23;1.83;;;26.10;79.60;;;;;;5036480;28;20522;-63
2022/09/07 12:15:26;;;;;;;9.63;2.20;;;26.10;79.60;;;;;;5020563;28;20480;-64
2022/09/07 12:18:05;;;;;;;4.30;1.73;;;25.80;81.00;;;;;;5050822;28;20480;-63
2022/09/07 12:20:41;;;;;;;7.73;1.90;;;25.70;81.40;;;;;;5046395;28;20494;-64
2022/09/07 12:23:21;;;;;;;3.80;2.07;;;25.70;83.00;;;;;;5029329;28;20471;-63
2022/09/07 12:25:50;;;;;;;11.47;2.00;;;25.80;82.70;;;;;;5022078;28;20450;-63
2022/09/07 12:28:37;;;;;;;7.60;2.20;;;26.00;81.20;;;;;;5023960;28;20967;-63
2022/09/07 12:31:11;;;;;;;15.70;2.23;;;26.00;81.50;;;;;;5042409;28;20460;-63
2022/09/07 12:33:39;;;;;;;7.43;2.13;;;;;;;;;;5035863;28;20872;-63
2022/09/07 12:36:40;;;;;;;7.40;1.70;;;26.40;82.10;;;;;;5027428;28;20870;-63
2022/09/07 12:39:22;;;;;;;5.87;1.60;;;26.50;80.90;;;;;;4996768;28;20479;-63
2022/09/07 12:41:52;;;;;;;16.43;2.60;;;26.70;79.40;;;;;;5013256;28;20938;-62
2022/09/07 12:44:24;;;;;;;7.27;2.17;;;26.80;79.90;;;;;;5031106;28;20554;-63
2022/09/07 12:46:55;;;;;;;9.50;2.20;;;26.70;80.30;;;;;;5023403;28;20486;-63
2022/09/07 12:49:47;;;;;;;3.10;1.73;;;26.80;79.80;;;;;;5032500;28;20721;-63
2022/09/07 12:52:34;;;;;;;14.17;3.10;;;26.70;79.80;;;;;;5034045;28;20828;-64
2022/09/07 12:55:09;;;;;;;13.80;1.97;;;;;;;;;;5028682;28;20487;-63
2022/09/07 12:57:43;;;;;;;13.97;2.37;;;26.60;78.10;;;;;;5028523;28;21073;-64
2022/09/07 13:00:18;;;;;;;7.07;1.80;;;26.40;79.20;;;;;;5034834;28;20485;-63
2022/09/07 13:03:05;;;;;;;14.53;2.20;;;;;;;;;;5022355;28;20601;-63
2022/09/07 13:05:41;;;;;;;3.40;1.80;;;;;;;;;;5018332;28;20825;-64
2022/09/07 13:08:19;;;;;;;5.87;1.80;;;;;;;;;;5032509;28;20563;-63
2022/09/07 13:10:47;;;;;;;6.73;2.10;;;;;;;;;;5032628;28;20927;-64
2022/09/07 13:13:20;;;;;;;13.57;2.20;;;25.90;83.00;;;;;;5034109;28;22764;-63
2022/09/07 13:15:49;;;;;;;7.00;2.03;;;25.90;81.50;;;;;;5033128;28;20495;-62
2022/09/07 13:18:35;;;;;;;10.90;2.47;;;;;;;;;;5034548;28;20475;-62
2022/09/07 13:21:32;;;;;;;7.97;2.77;;;25.60;82.10;;;;;;5023691;28;20481;-63
2022/09/07 13:24:29;;;;;;;7.43;1.80;;;;;;;;;;5025830;28;20464;-63
2022/09/07 13:27:00;;;;;;;17.60;2.30;;;25.50;82.80;;;;;;4945257;28;20492;-63